createdAt,value
2023-03-21T00:01:53.906Z,100276.16
2023-03-21T00:04:22.559Z,100273.53
2023-03-21T00:06:50.757Z,100271.78
2023-03-21T00:09:20.466Z,100263.16
2023-03-21T00:11:48.572Z,100266.56
2023-03-21T00:14:18.953Z,100265.66
2023-03-21T00:16:50.624Z,100266.44
2023-03-21T00:19:20.925Z,100263.84
2023-03-21T00:22:06.555Z,100265.53
2023-03-21T00:24:36.607Z,100250.09
2023-03-21T00:29:56.331Z,100250.91
2023-03-21T00:32:24.390Z,100248.25
2023-03-21T00:35:23.280Z,100244.66
2023-03-21T00:37:42.138Z,100239.34
2023-03-21T00:40:22.964Z,100231.56
2023-03-21T00:42:53.947Z,100235.72
2023-03-21T00:45:22.513Z,100233.91
2023-03-21T00:47:50.717Z,100237.31
2023-03-21T00:50:20.523Z,100227.75
2023-03-21T00:52:48.569Z,100225.16
2023-03-21T00:55:19.762Z,100230.38
2023-03-21T00:57:56.203Z,100228.63
2023-03-21T01:00:29.610Z,100227.84
2023-03-21T01:03:11.226Z,100215.88
2023-03-21T01:06:07.696Z,100209.97
2023-03-21T01:08:51.247Z,100209.22
2023-03-21T01:11:23.158Z,100198.19
2023-03-21T01:13:56.053Z,100193.97
2023-03-21T01:16:27.832Z,100188.03
2023-03-21T01:18:58.116Z,100187.25
2023-03-21T01:21:27.877Z,100183.91
2023-03-21T01:23:56.207Z,100178.88
2023-03-21T01:26:24.668Z,100174.69
2023-03-21T01:28:52.805Z,100167.00
2023-03-21T01:31:22.760Z,100165.31
2023-03-21T01:33:50.853Z,100168.75
2023-03-21T01:36:23.516Z,100165.28
2023-03-21T01:38:55.029Z,100156.66
2023-03-21T01:41:42.588Z,100154.91
2023-03-21T01:44:16.972Z,100149.69
2023-03-21T01:47:03.580Z,100150.50
2023-03-21T01:49:41.731Z,100143.59
2023-03-21T01:52:23.625Z,100145.28
2023-03-21T01:54:57.239Z,100149.59
2023-03-21T01:57:43.570Z,100142.72
2023-03-21T02:00:17.012Z,100142.75
2023-03-21T02:02:52.682Z,100141.03
2023-03-21T02:05:25.630Z,100137.66
2023-03-21T02:07:54.288Z,100124.78
2023-03-21T02:10:23.778Z,100120.50
2023-03-21T02:12:55.067Z,100114.50
2023-03-21T02:15:26.581Z,100096.47
2023-03-21T02:18:00.175Z,100093.00
2023-03-21T02:21:08.767Z,100088.56
2023-03-21T02:23:58.104Z,100079.06
2023-03-21T02:27:03.401Z,100080.72
2023-03-21T02:30:05.741Z,100066.19
2023-03-21T02:32:49.648Z,100073.78
2023-03-21T02:35:41.467Z,100059.06
2023-03-21T02:38:19.544Z,100064.91
2023-03-21T02:40:53.715Z,100059.59
2023-03-21T02:43:35.398Z,100056.06
2023-03-21T02:46:08.536Z,100054.34
2023-03-21T02:48:50.220Z,100045.78
2023-03-21T02:51:23.207Z,100044.16
2023-03-21T02:54:23.677Z,100038.19
2023-03-21T02:56:49.203Z,100043.44
2023-03-21T02:59:20.150Z,100032.38
2023-03-21T03:01:48.592Z,100025.59
2023-03-21T03:04:21.322Z,100024.75
2023-03-21T03:07:03.848Z,100035.91
2023-03-21T03:09:49.120Z,100028.19
2023-03-21T03:12:28.906Z,100011.91
2023-03-21T03:15:08.717Z,100017.88
2023-03-21T03:17:48.765Z,100005.06
2023-03-21T03:20:25.790Z,100000.75
2023-03-21T03:23:01.898Z,100000.66
2023-03-21T03:25:42.791Z,100004.91
2023-03-21T03:28:14.582Z,99994.44
2023-03-21T03:30:57.182Z,100001.22
2023-03-21T03:33:35.046Z,99998.56
2023-03-21T03:36:06.602Z,100003.78
2023-03-21T03:38:36.974Z,99996.00
2023-03-21T03:41:11.853Z,99982.25
2023-03-21T03:43:44.902Z,99981.41
2023-03-21T03:46:19.240Z,99975.50
2023-03-21T03:48:51.617Z,99971.19
2023-03-21T03:51:26.035Z,99965.19
2023-03-21T03:53:58.370Z,99967.88
2023-03-21T03:56:28.635Z,99968.88
2023-03-21T03:58:58.244Z,99968.97
2023-03-21T04:01:26.756Z,99962.16
2023-03-21T04:04:06.920Z,99953.66
2023-03-21T04:06:41.536Z,99950.22
2023-03-21T04:09:20.929Z,99945.09
2023-03-21T04:11:52.876Z,99942.53
2023-03-21T04:14:21.041Z,99942.56
2023-03-21T04:16:49.327Z,99931.41
2023-03-21T04:19:18.401Z,99934.84
2023-03-21T04:21:47.595Z,99935.75
2023-03-21T04:24:18.074Z,99923.75
2023-03-21T04:26:46.429Z,99910.88
2023-03-21T04:29:15.878Z,99911.72
2023-03-21T04:31:44.111Z,99909.16
2023-03-21T04:34:12.636Z,99909.06
2023-03-21T04:36:44.243Z,99902.16
2023-03-21T04:39:13.323Z,99900.41
2023-03-21T04:41:42.026Z,99893.44
2023-03-21T04:44:10.538Z,99895.91
2023-03-21T04:46:40.602Z,99889.88
2023-03-21T04:49:09.090Z,99892.53
2023-03-21T04:51:38.012Z,99898.56
2023-03-21T04:56:36.560Z,99896.09
2023-03-21T04:59:08.358Z,99893.56
2023-03-21T05:01:36.414Z,99899.59
2023-03-21T05:04:06.456Z,99895.34
2023-03-21T05:06:35.028Z,99897.97
2023-03-21T05:09:05.521Z,99899.69
2023-03-21T05:11:36.048Z,99900.59
2023-03-21T05:14:04.560Z,99898.00
2023-03-21T05:16:34.775Z,99895.44
2023-03-21T05:19:05.083Z,99879.16
2023-03-21T05:21:41.427Z,99881.72
2023-03-21T05:24:12.344Z,99878.25
2023-03-21T05:26:41.903Z,99870.53
2023-03-21T05:29:10.771Z,99862.81
2023-03-21T05:31:40.086Z,99863.69
2023-03-21T05:34:10.220Z,99868.00
2023-03-21T05:36:41.846Z,99872.31
2023-03-21T05:39:10.226Z,99874.91
2023-03-21T05:41:38.427Z,99875.75
2023-03-21T05:44:06.549Z,99872.34
2023-03-21T05:46:36.254Z,99869.78
2023-03-21T05:49:04.910Z,99869.78
2023-03-21T05:51:32.968Z,99874.09
2023-03-21T05:54:02.585Z,99862.94
2023-03-21T05:56:30.654Z,99879.28
2023-03-21T05:58:58.720Z,99881.84
2023-03-21T06:01:26.762Z,99885.31
2023-03-21T06:03:54.948Z,99881.00
2023-03-21T06:06:23.340Z,99882.75
2023-03-21T06:08:51.397Z,99882.81
2023-03-21T06:11:27.198Z,99882.81
2023-03-21T06:13:55.264Z,99874.22
2023-03-21T06:16:23.543Z,99880.31
2023-03-21T06:18:51.639Z,99894.06
2023-03-21T06:21:21.840Z,99882.94
2023-03-21T06:23:51.767Z,99890.72
2023-03-21T06:26:23.096Z,99889.00
2023-03-21T06:28:54.603Z,99904.47
2023-03-21T06:31:22.853Z,99904.50
2023-03-21T06:33:51.839Z,99908.81
2023-03-21T06:36:21.076Z,99903.69
2023-03-21T06:38:49.442Z,99913.16
2023-03-21T06:41:17.786Z,99916.56
2023-03-21T06:43:48.859Z,99914.81
2023-03-21T06:46:18.252Z,99929.31
2023-03-21T06:48:46.430Z,99924.94
2023-03-21T06:51:15.589Z,99924.94
2023-03-21T06:53:44.704Z,99925.69
2023-03-21T06:56:15.501Z,99924.78
2023-03-21T06:58:43.791Z,99944.50
2023-03-21T07:01:12.078Z,99936.81
2023-03-21T07:03:43.253Z,99941.16
2023-03-21T07:06:13.662Z,99949.84
2023-03-21T07:08:42.446Z,99951.66
2023-03-21T07:11:10.991Z,99957.69
2023-03-21T07:13:38.971Z,99943.94
2023-03-21T07:16:08.815Z,99955.88
2023-03-21T07:18:37.118Z,99957.56
2023-03-21T07:21:07.493Z,99961.84
2023-03-21T07:23:35.821Z,99957.53
2023-03-21T07:26:04.204Z,99958.44
2023-03-21T07:28:32.459Z,99964.47
2023-03-21T07:31:02.666Z,99976.66
2023-03-21T07:33:31.653Z,99978.50
2023-03-21T07:36:00.113Z,99980.22
2023-03-21T07:38:31.067Z,99983.72
2023-03-21T07:41:01.135Z,99994.97
2023-03-21T07:43:29.218Z,99993.34
2023-03-21T07:46:01.116Z,99992.53
2023-03-21T07:48:30.351Z,100002.00
2023-03-21T07:50:58.562Z,99994.19
2023-03-21T07:53:26.571Z,100002.72
2023-03-21T07:55:57.068Z,100009.63
2023-03-21T07:58:25.252Z,100014.03
2023-03-21T08:00:53.653Z,100015.00
2023-03-21T08:03:24.182Z,100028.00
2023-03-21T08:05:52.390Z,100026.31
2023-03-21T08:08:20.630Z,100033.22
2023-03-21T08:10:48.615Z,100036.66
2023-03-21T08:13:18.071Z,100040.09
2023-03-21T08:15:46.402Z,100044.41
2023-03-21T08:18:15.924Z,100040.06
2023-03-21T08:20:46.383Z,100035.66
2023-03-21T08:23:14.962Z,100028.78
2023-03-21T08:25:43.397Z,100023.72
2023-03-21T08:28:11.449Z,100009.97
2023-03-21T08:30:40.998Z,100015.19
2023-03-21T08:33:09.153Z,100011.81
2023-03-21T08:35:40.851Z,100008.41
2023-03-21T08:38:10.100Z,100004.09
2023-03-21T08:40:38.176Z,100012.75
2023-03-21T08:43:08.573Z,100015.34
2023-03-21T08:45:37.440Z,100025.66
2023-03-21T08:48:07.675Z,100018.78
2023-03-21T08:50:36.109Z,100023.09
2023-03-21T08:53:04.401Z,100037.69
2023-03-21T08:55:33.535Z,100023.91
2023-03-21T08:58:02.059Z,100030.81
2023-03-21T09:00:30.715Z,100030.84
2023-03-21T09:03:01.602Z,100037.72
2023-03-21T09:05:31.390Z,100039.44
2023-03-21T09:08:03.573Z,100040.22
2023-03-21T09:10:31.642Z,100042.81
2023-03-21T09:13:03.083Z,100051.47
2023-03-21T09:15:35.775Z,100044.56
2023-03-21T09:18:13.546Z,100047.19
2023-03-21T09:20:44.043Z,100046.31
2023-03-21T09:23:13.297Z,100055.75
2023-03-21T09:25:41.464Z,100045.34
2023-03-21T09:28:13.307Z,100041.03
2023-03-21T09:30:41.894Z,100037.72
2023-03-21T09:33:13.420Z,100042.06
2023-03-21T09:35:45.317Z,100040.34
2023-03-21T09:38:13.743Z,100041.22
2023-03-21T09:40:57.604Z,100037.69
2023-03-21T09:43:45.249Z,100052.34
2023-03-21T09:46:31.868Z,100050.53
2023-03-21T09:49:04.829Z,100040.13
2023-03-21T09:51:38.253Z,100039.19
2023-03-21T09:54:16.264Z,100037.47
2023-03-21T09:56:46.118Z,100038.31
2023-03-21T09:59:23.098Z,100027.91
2023-03-21T10:01:51.836Z,100023.56
2023-03-21T10:04:22.460Z,100027.00
2023-03-21T10:07:01.449Z,100024.28
2023-03-21T10:09:32.604Z,100019.03
2023-03-21T10:12:06.483Z,100026.81
2023-03-21T10:14:37.243Z,100020.72
2023-03-21T10:17:17.200Z,100024.91
2023-03-21T10:19:46.643Z,100013.53
2023-03-21T10:22:16.129Z,100023.72
2023-03-21T10:24:48.930Z,100027.41
2023-03-21T10:27:17.308Z,100015.28
2023-03-21T10:29:47.260Z,100010.97
2023-03-21T10:32:18.825Z,100008.94
2023-03-21T10:34:52.414Z,100004.31
2023-03-21T10:37:22.616Z,99997.22
2023-03-21T10:39:53.323Z,100004.78
2023-03-21T10:42:24.050Z,99999.50
2023-03-21T10:44:54.118Z,100009.16
2023-03-21T10:47:23.915Z,100006.69
2023-03-21T10:50:09.251Z,100006.13
2023-03-21T10:52:44.437Z,100010.66
2023-03-21T10:55:24.479Z,100018.47
2023-03-21T10:57:58.997Z,100020.88
2023-03-21T11:00:31.691Z,100014.16
2023-03-21T11:03:00.694Z,99987.41
2023-03-21T11:05:37.578Z,99996.13
2023-03-21T11:08:13.607Z,99993.75
2023-03-21T11:11:01.207Z,100003.91
2023-03-21T11:13:36.768Z,100005.91
2023-03-21T11:16:10.996Z,100014.69
2023-03-21T11:18:43.863Z,100005.91
2023-03-21T11:21:14.498Z,100002.03
2023-03-21T11:23:48.160Z,100003.41
2023-03-21T11:26:24.196Z,100008.53
2023-03-21T11:28:52.826Z,100011.13
2023-03-21T11:31:21.637Z,100007.59
2023-03-21T11:33:53.703Z,100004.75
2023-03-21T11:36:38.146Z,99998.97
2023-03-21T11:39:32.092Z,99995.97
2023-03-21T11:42:00.716Z,99999.09
2023-03-21T11:44:36.612Z,100003.38
2023-03-21T11:47:04.705Z,100003.38
2023-03-21T11:49:33.093Z,100001.44
2023-03-21T11:52:21.114Z,100006.56
2023-03-21T11:55:11.992Z,100009.47
2023-03-21T11:57:48.716Z,100019.09
2023-03-21T12:00:23.808Z,100013.94
2023-03-21T12:03:14.172Z,100015.13
2023-03-21T12:05:52.108Z,100009.28
2023-03-21T12:08:32.681Z,100028.53
2023-03-21T12:11:08.226Z,100023.56
2023-03-21T12:13:48.492Z,100017.13
2023-03-21T12:16:46.306Z,100022.88
2023-03-21T12:19:34.633Z,100014.94
2023-03-21T12:22:11.533Z,100009.34
2023-03-21T12:24:49.510Z,100008.50
2023-03-21T12:27:28.756Z,100016.38
2023-03-21T12:30:11.393Z,100013.81
2023-03-21T12:32:54.080Z,100018.13
2023-03-21T12:35:33.818Z,100005.78
2023-03-21T12:38:16.861Z,100010.00
2023-03-21T12:41:10.035Z,100008.19
2023-03-21T12:43:48.473Z,100000.34
2023-03-21T12:46:23.825Z,100007.06
2023-03-21T12:48:55.238Z,100000.81
2023-03-21T12:51:29.801Z,99996.59
2023-03-21T12:54:03.564Z,99996.53
2023-03-21T12:56:35.431Z,99993.00
2023-03-21T12:59:15.590Z,99984.19
2023-03-21T13:01:44.197Z,99977.00
2023-03-21T13:04:34.450Z,99988.91
2023-03-21T13:07:06.627Z,99980.13
2023-03-21T13:09:38.493Z,99976.50
2023-03-21T13:12:21.011Z,99964.16
2023-03-21T13:15:21.834Z,99957.28
2023-03-21T13:18:01.156Z,99951.50
2023-03-21T13:20:37.576Z,99949.97
2023-03-21T13:23:06.641Z,99939.56
2023-03-21T13:25:40.661Z,99937.31
2023-03-21T13:28:17.877Z,99934.03
2023-03-21T13:30:48.901Z,99930.25
2023-03-21T13:33:24.099Z,99925.50
2023-03-21T13:36:01.053Z,99925.16
2023-03-21T13:38:30.940Z,99919.00
2023-03-21T13:41:00.890Z,99913.69
2023-03-21T13:43:41.705Z,99902.72
2023-03-21T13:46:14.123Z,99896.84
2023-03-21T13:48:57.872Z,99889.25
2023-03-21T13:51:47.540Z,99886.38
2023-03-21T13:54:22.050Z,99886.78
2023-03-21T13:56:52.349Z,99875.25
2023-03-21T13:59:36.231Z,99874.16
2023-03-21T14:02:23.082Z,99861.88
2023-03-21T14:05:07.050Z,99868.44
2023-03-21T14:07:41.037Z,99857.81
2023-03-21T14:10:23.391Z,99869.50
2023-03-21T14:12:53.200Z,99871.34
2023-03-21T14:15:24.528Z,99862.78
2023-03-21T14:17:56.196Z,99854.00
2023-03-21T14:20:29.713Z,99838.22
2023-03-21T14:22:59.537Z,99839.19
2023-03-21T14:25:40.946Z,99828.91
2023-03-21T14:28:18.076Z,99822.25
2023-03-21T14:30:47.203Z,99815.69
2023-03-21T14:33:19.945Z,99813.41
2023-03-21T14:35:49.998Z,99813.59
2023-03-21T14:38:23.328Z,99800.81
2023-03-21T14:40:53.338Z,99793.09
2023-03-21T14:43:23.032Z,99787.03
2023-03-21T14:45:54.674Z,99775.84
2023-03-21T14:48:32.171Z,99780.22
2023-03-21T14:51:04.755Z,99781.22
2023-03-21T14:53:37.279Z,99774.41
2023-03-21T14:56:10.512Z,99765.00
2023-03-21T14:58:41.421Z,99769.44
2023-03-21T15:01:17.412Z,99759.31
2023-03-21T15:03:48.805Z,99745.91
2023-03-21T15:06:17.729Z,99762.50
2023-03-21T15:08:56.116Z,99754.97
2023-03-21T15:11:32.059Z,99759.41
2023-03-21T15:14:02.861Z,99746.56
2023-03-21T15:16:32.620Z,99744.84
2023-03-21T15:19:16.206Z,99740.59
2023-03-21T15:21:49.442Z,99734.59
2023-03-21T15:24:23.856Z,99721.75
2023-03-21T15:26:53.509Z,99726.09
2023-03-21T15:29:23.276Z,99714.94
2023-03-21T15:31:51.482Z,99718.44
2023-03-21T15:34:24.597Z,99708.97
2023-03-21T15:36:59.137Z,99703.81
2023-03-21T15:39:36.891Z,99701.28
2023-03-21T15:42:07.646Z,99680.63
2023-03-21T15:44:36.603Z,99673.69
2023-03-21T15:47:04.982Z,99668.53
2023-03-21T15:49:35.828Z,99662.56
2023-03-21T15:52:08.378Z,99655.72
2023-03-21T15:54:42.494Z,99650.56
2023-03-21T15:57:22.885Z,99647.16
2023-03-21T15:59:52.405Z,99635.97
2023-03-21T16:02:23.265Z,99642.06
2023-03-21T16:05:01.203Z,99640.41
2023-03-21T16:07:29.930Z,99634.38
2023-03-21T16:10:05.791Z,99632.69
2023-03-21T16:12:35.961Z,99627.53
2023-03-21T16:15:13.460Z,99619.81
2023-03-21T16:17:54.183Z,99608.63
2023-03-21T16:20:27.700Z,99602.66
2023-03-21T16:22:56.734Z,99592.34
2023-03-21T16:25:29.996Z,99590.66
2023-03-21T16:27:58.968Z,99576.03
2023-03-21T16:30:27.538Z,99564.91
2023-03-21T16:32:55.618Z,99565.81
2023-03-21T16:35:29.308Z,99559.81
2023-03-21T16:37:57.479Z,99555.53
2023-03-21T16:40:29.002Z,99550.34
2023-03-21T16:42:59.642Z,99540.06
2023-03-21T16:45:30.589Z,99529.75
2023-03-21T16:48:03.236Z,99509.97
2023-03-21T16:50:37.101Z,99512.59
2023-03-21T16:53:09.793Z,99503.13
2023-03-21T16:55:38.954Z,99498.84
2023-03-21T16:58:07.537Z,99489.38
2023-03-21T17:00:38.876Z,99496.28
2023-03-21T17:03:15.111Z,99483.38
2023-03-21T17:05:44.857Z,99476.53
2023-03-21T17:08:17.145Z,99466.25
2023-03-21T17:10:45.419Z,99468.84
2023-03-21T17:13:13.734Z,99466.28
2023-03-21T17:15:42.270Z,99468.00
2023-03-21T17:18:12.366Z,99464.56
2023-03-21T17:20:41.861Z,99455.13
2023-03-21T17:23:12.133Z,99445.66
2023-03-21T17:25:40.251Z,99432.75
2023-03-21T17:28:14.134Z,99409.53
2023-03-21T17:30:45.767Z,99390.63
2023-03-21T17:33:17.650Z,99393.22
2023-03-21T17:35:45.760Z,99381.19
2023-03-21T17:38:19.089Z,99376.91
2023-03-21T17:40:50.548Z,99377.78
2023-03-21T17:43:20.736Z,99364.03
2023-03-21T17:45:48.544Z,99351.16
2023-03-21T17:48:16.586Z,99347.72
2023-03-21T17:50:44.661Z,99335.66
2023-03-21T17:53:15.054Z,99344.28
2023-03-21T17:55:43.145Z,99328.78
2023-03-21T17:58:13.042Z,99322.81
2023-03-21T18:00:41.337Z,99315.91
2023-03-21T18:03:09.412Z,99322.84
2023-03-21T18:05:37.646Z,99312.50
2023-03-21T18:08:10.762Z,99313.34
2023-03-21T18:10:42.878Z,99297.03
2023-03-21T18:13:11.502Z,99294.50
2023-03-21T18:15:44.783Z,99289.34
2023-03-21T18:18:13.478Z,99291.03
2023-03-21T18:20:58.440Z,99275.56
2023-03-21T18:23:26.981Z,99266.09
2023-03-21T18:25:58.485Z,99261.81
2023-03-21T18:28:27.237Z,99254.97
2023-03-21T18:31:15.924Z,99239.47
2023-03-21T18:33:45.263Z,99226.59
2023-03-21T18:36:15.734Z,99228.28
2023-03-21T18:38:44.144Z,99220.56
2023-03-21T18:41:15.130Z,99205.97
2023-03-21T18:46:32.639Z,99201.69
2023-03-21T18:49:27.063Z,99192.22
2023-03-21T18:51:49.449Z,99187.06
2023-03-21T18:54:18.355Z,99180.19
2023-03-21T18:57:33.909Z,99178.44
2023-03-21T18:59:40.320Z,99174.16
2023-03-21T19:02:09.266Z,99162.97
2023-03-21T19:04:39.438Z,99162.97
2023-03-21T19:07:08.213Z,99165.56
2023-03-21T19:09:58.322Z,99161.25
2023-03-21T19:12:26.553Z,99149.19
2023-03-21T19:14:54.820Z,99141.44
2023-03-21T19:18:26.157Z,99137.16
2023-03-21T19:20:14.131Z,99135.44
2023-03-21T19:22:42.321Z,99129.41
2023-03-21T19:25:11.770Z,99117.41
2023-03-21T19:27:41.738Z,99119.09
2023-03-21T19:30:15.633Z,99118.25
2023-03-21T19:32:44.524Z,99113.91
2023-03-21T19:35:14.308Z,99107.84
2023-03-21T19:37:42.531Z,99098.41
2023-03-21T19:40:12.380Z,99091.53
2023-03-21T19:42:43.380Z,99094.94
2023-03-21T19:45:12.438Z,99078.59
2023-03-21T19:47:40.554Z,99077.66
2023-03-21T19:52:58.230Z,99067.34
2023-03-21T19:55:27.160Z,99054.44
2023-03-21T19:57:56.569Z,99048.41
2023-03-21T20:00:24.844Z,99046.66
2023-03-21T20:02:53.724Z,99035.41
2023-03-21T20:05:22.325Z,99025.94
2023-03-21T20:07:50.443Z,99030.16
2023-03-21T20:10:21.074Z,99006.84
2023-03-21T20:12:49.187Z,99011.03
2023-03-21T20:15:21.607Z,99008.44
2023-03-21T20:17:50.500Z,99001.66
2023-03-21T20:20:19.547Z,98988.78
2023-03-21T20:23:10.925Z,98976.72
2023-03-21T20:25:55.790Z,98972.47
2023-03-21T20:28:27.151Z,98964.72
2023-03-21T20:30:59.631Z,98959.56
2023-03-21T20:33:28.137Z,98944.16
2023-03-21T20:36:37.709Z,98937.25
2023-03-21T20:38:48.755Z,98922.63
2023-03-21T20:41:17.208Z,98915.75
2023-03-21T20:46:37.519Z,98893.47
2023-03-21T20:49:15.887Z,98888.34
2023-03-21T20:52:44.609Z,98868.59
2023-03-21T20:54:35.575Z,98869.44
2023-03-21T20:57:05.258Z,98866.00
2023-03-21T20:59:33.704Z,98872.84
2023-03-21T21:02:03.906Z,98864.22
2023-03-21T21:05:15.604Z,98872.72
2023-03-21T21:07:23.674Z,98867.53
2023-03-21T21:09:51.775Z,98858.03
2023-03-21T21:12:20.136Z,98857.13
2023-03-21T21:14:49.221Z,98844.19
2023-03-21T21:17:40.430Z,98848.47
2023-03-21T21:20:17.800Z,98834.78
2023-03-21T21:22:58.642Z,98836.47
2023-03-21T21:25:30.615Z,98844.25
2023-03-21T21:27:59.051Z,98831.41
2023-03-21T21:30:27.518Z,98828.84
2023-03-21T21:32:59.618Z,98834.88
2023-03-21T21:35:28.145Z,98831.44
2023-03-21T21:37:57.402Z,98829.78
2023-03-21T21:40:26.364Z,98812.59
2023-03-21T21:42:54.396Z,98815.19
2023-03-21T21:45:22.658Z,98799.78
2023-03-21T21:47:51.203Z,98805.81
2023-03-21T21:50:22.523Z,98807.56
2023-03-21T21:52:54.430Z,98787.78
2023-03-21T21:55:23.108Z,98788.69
2023-03-21T21:57:53.216Z,98777.53
2023-03-21T22:00:23.857Z,98784.44
2023-03-21T22:02:52.215Z,98773.31
2023-03-21T22:05:22.614Z,98771.66
2023-03-21T22:07:53.089Z,98765.69
2023-03-21T22:10:23.684Z,98755.31
2023-03-21T22:12:52.560Z,98743.31
2023-03-21T22:15:24.026Z,98736.44
2023-03-21T22:17:52.899Z,98722.69
2023-03-21T22:20:24.053Z,98728.75
2023-03-21T22:22:52.241Z,98721.06
2023-03-21T22:25:20.506Z,98727.09
2023-03-21T22:27:48.602Z,98721.94
2023-03-21T22:30:18.697Z,98727.94
2023-03-21T22:33:02.613Z,98705.56
2023-03-21T22:35:53.126Z,98695.16
2023-03-21T22:38:39.448Z,98703.63
2023-03-21T22:41:08.144Z,98711.19
2023-03-21T22:43:37.488Z,98705.84
2023-03-21T22:46:07.707Z,98710.75
2023-03-21T22:48:36.159Z,98695.91
2023-03-21T22:51:05.995Z,98685.44
2023-03-21T22:53:34.224Z,98680.16
2023-03-21T22:56:02.218Z,98687.91
2023-03-21T22:58:30.377Z,98681.88
2023-03-21T23:01:02.336Z,98670.63
2023-03-21T23:03:30.600Z,98668.00
2023-03-21T23:06:01.588Z,98668.03
2023-03-21T23:08:31.590Z,98650.00
2023-03-21T23:10:59.694Z,98655.09
2023-03-21T23:13:28.951Z,98624.97
2023-03-21T23:15:57.158Z,98607.78
2023-03-21T23:18:25.240Z,98600.91
2023-03-21T23:20:53.676Z,98606.06
2023-03-21T23:23:21.728Z,98593.19
2023-03-21T23:25:51.299Z,98602.66
2023-03-21T23:28:19.618Z,98591.44
2023-03-21T23:30:48.954Z,98604.31
2023-03-21T23:33:17.120Z,98618.84
2023-03-21T23:35:46.222Z,98620.53
2023-03-21T23:38:14.294Z,98619.72
2023-03-21T23:40:42.781Z,98617.13
2023-03-21T23:43:12.263Z,98617.13
2023-03-21T23:45:40.444Z,98637.78
2023-03-21T23:48:08.697Z,98622.28
2023-03-21T23:50:36.751Z,98621.38
2023-03-21T23:53:05.705Z,98598.97
2023-03-21T23:55:35.832Z,98604.97
2023-03-21T23:58:03.641Z,98611.78
